Time;durP1;ratioP1;P1;durP2;ratioP2;P2;SDS_P1;SDS_P2;PMS_P1;PMS_P2;Temp;Humidity;BMP_temperature;BMP_pressure;BME280_temperature;BME280_humidity;BME280_pressure;Samples;Min_cycle;Max_cycle;Signal;HPM_P1;HPM_P2
2023/05/16 07:48:29;;;;;;;1.47;0.40;;;16.70;97.80;;;;;;4942513;28;20275;-74
2023/05/16 07:50:56;;;;;;;1.63;0.40;;;16.40;97.80;;;;;;4957083;28;20563;-75
2023/05/16 07:53:23;;;;;;;1.17;0.50;;;16.50;97.70;;;;;;4974257;28;20249;-78
2023/05/16 07:55:50;;;;;;;2.93;0.60;;;17.20;97.40;;;;;;4959167;28;20314;-76
2023/05/16 07:58:18;;;;;;;2.23;0.50;;;18.20;97.70;;;;;;4954934;28;20211;-73
2023/05/16 08:00:45;;;;;;;2.77;0.50;;;18.60;95.70;;;;;;4954706;28;20212;-73
2023/05/16 08:03:12;;;;;;;2.17;0.40;;;18.70;96.10;;;;;;4957272;28;20235;-74
2023/05/16 08:05:41;;;;;;;2.05;0.40;;;19.60;95.80;;;;;;4956002;28;20326;-70
2023/05/16 08:08:08;;;;;;;2.95;0.55;;;20.00;94.60;;;;;;4933960;29;20622;-71
2023/05/16 08:10:35;;;;;;;2.17;0.60;;;20.20;93.60;;;;;;4934335;29;20615;-72
2023/05/16 08:13:02;;;;;;;2.70;0.60;;;20.50;94.30;;;;;;4934221;29;20260;-72
2023/05/16 08:15:30;;;;;;;4.10;0.63;;;19.80;94.10;;;;;;4945798;28;20319;-71
2023/05/16 08:17:58;;;;;;;2.15;0.40;;;18.90;95.10;;;;;;4952835;28;20216;-69
2023/05/16 08:20:26;;;;;;;4.03;0.60;;;18.70;95.80;;;;;;4953109;28;20212;-71
2023/05/16 08:22:54;;;;;;;2.67;0.70;;;18.60;97.00;;;;;;4953358;28;20811;-70
2023/05/16 08:25:21;;;;;;;5.85;0.70;;;18.00;98.60;;;;;;4953092;28;20236;-70
2023/05/16 08:27:49;;;;;;;2.13;0.57;;;17.40;99.00;;;;;;4953879;29;20849;-70
2023/05/16 08:30:16;;;;;;;4.43;0.60;;;17.20;98.80;;;;;;4954430;28;20244;-70
2023/05/16 08:32:43;;;;;;;3.60;0.40;;;16.80;99.90;;;;;;4954234;28;20248;-70
2023/05/16 08:35:11;;;;;;;3.67;0.40;;;16.80;99.70;;;;;;4954474;28;20224;-72
2023/05/16 08:37:38;;;;;;;3.10;0.77;;;16.90;99.60;;;;;;4954608;28;20295;-70
2023/05/16 08:40:10;;;;;;;3.70;0.63;;;17.80;99.20;;;;;;4960388;28;20218;-71
2023/05/16 08:42:38;;;;;;;1.63;0.50;;;18.60;98.10;;;;;;4967195;28;20295;-71
2023/05/16 08:45:06;;;;;;;2.30;0.60;;;19.80;97.00;;;;;;4954417;28;20247;-70
2023/05/16 08:47:35;;;;;;;1.45;0.38;;;20.20;97.70;;;;;;4954226;28;20701;-71
2023/05/16 08:50:04;;;;;;;3.92;0.68;;;20.70;94.50;;;;;;4954451;28;20264;-72
2023/05/16 08:52:32;;;;;;;0.85;0.65;;;21.00;94.90;;;;;;4954377;28;20204;-70
2023/05/16 08:55:04;;;;;;;3.40;0.70;;;21.30;95.90;;;;;;4954217;28;20320;-71
2023/05/16 08:57:33;;;;;;;3.17;0.60;;;21.30;94.10;;;;;;4954227;28;20211;-71
2023/05/16 09:00:00;;;;;;;3.05;0.60;;;21.30;94.70;;;;;;4954345;28;20298;-72
2023/05/16 09:02:28;;;;;;;2.22;0.45;;;21.30;94.70;;;;;;4954300;28;20243;-70
2023/05/16 09:04:57;;;;;;;3.75;0.50;;;21.80;95.50;;;;;;4953846;28;20326;-73
2023/05/16 09:07:24;;;;;;;2.22;0.73;;;22.30;93.30;;;;;;4954144;28;20212;-71
2023/05/16 09:09:50;;;;;;;1.30;0.50;;;22.30;93.00;;;;;;4953894;28;20239;-70
2023/05/16 09:12:17;;;;;;;1.90;0.50;;;21.80;91.70;;;;;;4957257;28;20250;-71
2023/05/16 09:14:46;;;;;;;1.67;0.40;;;21.50;92.30;;;;;;4957514;28;20263;-73
2023/05/16 09:17:14;;;;;;;4.15;0.82;;;20.60;93.20;;;;;;4957724;29;20239;-75
2023/05/16 09:19:42;;;;;;;2.05;0.28;;;20.00;93.90;;;;;;4957540;28;20570;-75
2023/05/16 09:22:12;;;;;;;2.47;0.52;;;19.90;94.40;;;;;;4957462;28;20235;-75
2023/05/16 09:24:39;;;;;;;2.55;0.50;;;19.60;94.20;;;;;;4957123;28;20231;-71
2023/05/16 09:27:10;;;;;;;3.60;0.70;;;19.50;94.90;;;;;;4957673;28;20212;-74
2023/05/16 09:29:40;;;;;;;1.33;0.45;;;19.50;94.30;;;;;;4957513;28;20240;-74
2023/05/16 09:32:13;;;;;;;1.73;0.40;;;19.00;94.50;;;;;;4957809;28;20244;-71
2023/05/16 09:34:43;;;;;;;2.37;0.50;;;17.90;95.30;;;;;;4957144;28;20228;-74
2023/05/16 09:37:11;;;;;;;4.27;0.40;;;17.50;95.30;;;;;;4957690;28;20626;-72
2023/05/16 09:39:40;;;;;;;0.90;0.30;;;17.50;95.70;;;;;;4959743;28;20208;-72
2023/05/16 09:42:12;;;;;;;1.27;0.40;;;17.50;95.40;;;;;;4976762;28;20301;-70
2023/05/16 09:44:39;;;;;;;1.17;0.43;;;17.50;96.10;;;;;;4970568;28;20259;-70
2023/05/16 09:47:06;;;;;;;0.93;0.40;;;17.90;96.00;;;;;;4956964;28;21034;-70
2023/05/16 09:49:37;;;;;;;3.07;0.40;;;18.10;95.40;;;;;;4956895;28;20215;-69
2023/05/16 09:52:04;;;;;;;1.10;0.40;;;17.90;95.30;;;;;;4957303;28;20204;-69
2023/05/16 09:54:32;;;;;;;1.87;0.57;;;17.40;96.70;;;;;;4956964;28;20234;-69
2023/05/16 09:57:00;;;;;;;3.23;0.80;;;17.20;98.30;;;;;;4956955;29;20738;-73
2023/05/16 09:59:29;;;;;;;1.50;0.40;;;17.30;98.20;;;;;;4956973;28;20267;-70
2023/05/16 10:01:59;;;;;;;2.97;0.60;;;17.20;99.60;;;;;;4956923;28;20210;-75
2023/05/16 10:04:26;;;;;;;4.53;0.70;;;17.30;98.50;;;;;;4956280;28;20712;-75
2023/05/16 10:06:56;;;;;;;1.20;0.70;;;17.50;97.70;;;;;;4956851;28;20299;-73
2023/05/16 10:09:27;;;;;;;3.33;0.60;;;17.60;98.40;;;;;;4956961;28;20239;-69
2023/05/16 10:11:56;;;;;;;2.23;0.67;;;17.40;97.80;;;;;;4956884;29;20212;-69
2023/05/16 10:14:24;;;;;;;2.37;1.60;;;17.30;98.60;;;;;;4956661;28;20299;-74
2023/05/16 10:16:52;;;;;;;2.77;0.50;;;17.20;98.00;;;;;;4956613;28;20755;-71
2023/05/16 10:19:23;;;;;;;2.57;0.70;;;17.20;98.40;;;;;;4956562;29;20254;-71
2023/05/16 10:21:54;;;;;;;4.40;0.40;;;17.10;98.60;;;;;;4956234;28;20244;-74
2023/05/16 10:24:29;;;;;;;2.87;0.27;;;17.00;98.70;;;;;;4955757;28;20761;-73
2023/05/16 10:26:56;;;;;;;5.37;0.73;;;17.20;98.50;;;;;;4956330;28;20204;-77
2023/05/16 10:29:24;;;;;;;0.60;0.40;;;17.40;96.50;;;;;;4956670;28;20300;-74
2023/05/16 10:31:52;;;;;;;4.73;0.50;;;17.20;95.90;;;;;;4956545;28;20239;-71
2023/05/16 10:34:19;;;;;;;0.80;0.30;;;17.10;97.10;;;;;;4955981;28;20241;-72
2023/05/16 10:36:47;;;;;;;1.33;0.40;;;17.10;97.20;;;;;;4956403;28;20246;-75
2023/05/16 10:39:15;;;;;;;1.37;0.50;;;17.30;97.30;;;;;;4968319;28;20294;-73
2023/05/16 10:41:43;;;;;;;2.97;0.50;;;17.10;96.70;;;;;;4975183;28;20207;-73
2023/05/16 10:44:15;;;;;;;3.07;0.60;;;17.00;97.30;;;;;;4973195;28;20255;-75
2023/05/16 10:46:43;;;;;;;3.67;0.50;;;16.70;97.60;;;;;;4956192;29;20219;-74
2023/05/16 10:49:20;;;;;;;2.03;0.57;;;16.80;96.90;;;;;;4956126;29;20235;-74
2023/05/16 10:52:04;;;;;;;2.97;0.50;;;16.70;97.20;;;;;;4955963;29;20215;-73
2023/05/16 10:54:39;;;;;;;1.77;0.50;;;16.80;97.70;;;;;;4955969;28;20227;-73
2023/05/16 10:57:10;;;;;;;2.33;0.40;;;16.80;96.50;;;;;;4956115;28;20601;-72
2023/05/16 10:59:45;;;;;;;3.83;0.40;;;16.80;96.30;;;;;;4955975;28;20603;-73
2023/05/16 11:02:27;;;;;;;2.27;0.40;;;17.00;95.90;;;;;;4955236;28;20254;-73
2023/05/16 11:04:56;;;;;;;3.13;0.73;;;17.10;96.30;;;;;;4955441;28;20243;-73
2023/05/16 11:07:25;;;;;;;1.80;0.37;;;16.80;97.00;;;;;;4955795;28;20239;-74
2023/05/16 11:10:06;;;;;;;3.07;0.40;;;16.60;99.10;;;;;;4955754;28;20208;-73
2023/05/16 11:12:43;;;;;;;1.17;0.53;;;16.50;98.30;;;;;;4955609;28;20239;-74
2023/05/16 11:15:25;;;;;;;1.03;0.30;;;16.40;97.30;;;;;;4955640;28;20235;-73
2023/05/16 11:18:05;;;;;;;1.77;0.43;;;16.20;98.80;;;;;;4955353;28;20299;-74
2023/05/16 11:20:34;;;;;;;2.40;0.50;;;16.30;98.30;;;;;;4955591;28;20213;-73
2023/05/16 11:23:25;;;;;;;1.83;0.27;;;16.50;98.80;;;;;;4955456;28;20208;-73
2023/05/16 11:25:55;;;;;;;2.67;0.40;;;16.60;97.60;;;;;;4940975;28;20240;-73
2023/05/16 11:28:25;;;;;;;3.77;0.60;;;16.60;97.40;;;;;;4955546;29;20208;-74
2023/05/16 11:30:55;;;;;;;2.33;0.50;;;16.50;97.40;;;;;;4955279;29;20204;-74
2023/05/16 11:33:23;;;;;;;1.60;0.40;;;16.60;97.30;;;;;;4954979;28;20247;-73
2023/05/16 11:36:04;;;;;;;2.03;0.80;;;16.70;97.50;;;;;;4955053;28;20299;-73
2023/05/16 11:38:32;;;;;;;1.77;0.50;;;16.90;97.80;;;;;;4955333;28;20251;-72
2023/05/16 11:41:06;;;;;;;5.30;0.60;;;17.00;97.90;;;;;;4967807;28;20238;-72
2023/05/16 11:43:42;;;;;;;2.37;0.50;;;17.00;98.10;;;;;;4974139;28;20270;-71
2023/05/16 11:46:11;;;;;;;1.27;0.43;;;16.90;97.20;;;;;;4956191;28;20319;-71
2023/05/16 11:48:38;;;;;;;3.80;0.80;;;16.80;97.50;;;;;;4954985;28;20215;-71
2023/05/16 11:51:06;;;;;;;0.73;0.33;;;16.70;97.20;;;;;;4955230;29;20303;-73
2023/05/16 11:53:33;;;;;;;4.00;0.63;;;16.80;97.80;;;;;;4955450;28;20224;-71
2023/05/16 11:56:01;;;;;;;1.57;0.40;;;16.80;97.40;;;;;;4955186;28;20247;-72
2023/05/16 11:58:28;;;;;;;1.97;0.40;;;16.60;97.80;;;;;;4955086;29;20215;-72
2023/05/16 12:00:57;;;;;;;0.80;0.30;;;16.60;97.40;;;;;;4954840;28;20208;-74
2023/05/16 12:03:24;;;;;;;3.27;0.40;;;16.50;97.20;;;;;;4954494;28;20785;-72
2023/05/16 12:05:52;;;;;;;0.70;0.40;;;16.50;97.30;;;;;;4954798;28;20235;-72
2023/05/16 12:08:20;;;;;;;1.40;0.40;;;16.70;97.50;;;;;;4954669;28;20208;-73
2023/05/16 12:10:49;;;;;;;1.57;0.47;;;16.80;97.10;;;;;;4954855;28;20243;-74
2023/05/16 12:13:16;;;;;;;1.83;0.47;;;16.60;97.80;;;;;;4954582;28;20216;-73
2023/05/16 12:15:43;;;;;;;1.03;0.60;;;16.60;98.60;;;;;;4954481;28;20307;-74
2023/05/16 12:18:12;;;;;;;2.33;0.53;;;16.70;98.30;;;;;;4954558;28;20276;-73
2023/05/16 12:20:40;;;;;;;3.80;0.70;;;16.90;98.10;;;;;;4954464;28;20242;-73
2023/05/16 12:23:11;;;;;;;1.60;0.33;;;16.90;97.90;;;;;;4954825;28;20211;-74
2023/05/16 12:25:42;;;;;;;2.37;0.50;;;16.80;96.60;;;;;;4954310;28;20242;-74
2023/05/16 12:28:11;;;;;;;1.63;0.53;;;16.80;97.00;;;;;;4954509;28;20243;-74
2023/05/16 12:30:41;;;;;;;2.20;0.70;;;16.90;96.80;;;;;;4954709;28;20283;-74
2023/05/16 12:33:12;;;;;;;1.63;0.67;;;16.90;96.90;;;;;;4954260;28;20298;-75
2023/05/16 12:35:40;;;;;;;3.17;0.63;;;16.90;96.20;;;;;;4954347;28;20544;-76
2023/05/16 12:38:08;;;;;;;0.93;0.30;;;16.80;96.50;;;;;;4954555;28;20208;-75
2023/05/16 12:40:38;;;;;;;1.03;0.30;;;16.90;97.00;;;;;;4964385;28;20253;-77
2023/05/16 12:43:05;;;;;;;3.93;0.50;;;17.10;96.40;;;;;;4973809;28;20203;-75
2023/05/16 12:45:33;;;;;;;1.60;0.50;;;17.10;96.80;;;;;;4961159;28;20726;-75
2023/05/16 12:48:06;;;;;;;1.83;0.30;;;17.10;96.20;;;;;;4958197;28;20243;-76
2023/05/16 12:50:35;;;;;;;2.57;0.60;;;17.10;96.50;;;;;;4958277;28;20208;-76
2023/05/16 12:53:02;;;;;;;0.90;0.50;;;16.80;96.00;;;;;;4958155;28;20207;-76
2023/05/16 12:55:29;;;;;;;3.03;0.47;;;16.60;96.70;;;;;;4958033;28;20271;-75
2023/05/16 12:57:56;;;;;;;2.07;0.30;;;16.70;96.70;;;;;;4957982;28;20219;-75
2023/05/16 13:00:24;;;;;;;2.27;0.53;;;16.80;96.60;;;;;;4958265;28;20204;-74
2023/05/16 13:02:51;;;;;;;2.77;0.60;;;16.80;96.50;;;;;;4958155;28;20239;-74
2023/05/16 13:05:19;;;;;;;3.83;0.60;;;16.80;96.60;;;;;;4957869;28;20322;-77
2023/05/16 13:07:47;;;;;;;3.17;0.57;;;16.90;96.50;;;;;;4958456;28;20230;-76
2023/05/16 13:10:14;;;;;;;2.20;0.60;;;16.90;96.40;;;;;;4958090;28;20246;-76
2023/05/16 13:12:41;;;;;;;2.73;0.40;;;16.90;96.30;;;;;;4958215;28;20239;-76
2023/05/16 13:15:10;;;;;;;1.03;0.40;;;16.90;96.40;;;;;;4957692;28;20320;-74
2023/05/16 13:17:38;;;;;;;4.00;0.40;;;17.00;96.40;;;;;;4957590;28;20212;-76
2023/05/16 13:20:08;;;;;;;5.03;0.50;;;17.10;96.00;;;;;;4957458;28;20258;-75
2023/05/16 13:22:35;;;;;;;1.73;0.30;;;17.10;96.30;;;;;;4958062;28;20212;-76
2023/05/16 13:25:04;;;;;;;3.80;0.40;;;17.00;96.00;;;;;;4957461;28;20310;-74
2023/05/16 13:27:32;;;;;;;0.90;0.40;;;16.90;96.60;;;;;;4957474;28;20215;-74
2023/05/16 13:29:59;;;;;;;2.60;0.60;;;16.80;96.10;;;;;;4957406;28;20762;-78
2023/05/16 13:32:26;;;;;;;0.50;0.30;;;16.90;97.20;;;;;;4957396;28;20692;-76
2023/05/16 13:34:53;;;;;;;1.60;0.60;;;16.90;96.60;;;;;;4957506;28;20327;-76
2023/05/16 13:37:23;;;;;;;0.80;0.30;;;16.80;97.00;;;;;;4957789;28;20302;-76
2023/05/16 13:39:50;;;;;;;2.57;0.50;;;16.80;95.70;;;;;;4960603;28;20555;-76
2023/05/16 13:42:18;;;;;;;2.23;0.57;;;17.00;95.90;;;;;;4976373;28;20242;-76
2023/05/16 13:44:45;;;;;;;2.97;0.60;;;16.90;95.60;;;;;;4962336;28;20307;-77
2023/05/16 13:47:12;;;;;;;2.60;0.43;;;17.00;96.20;;;;;;4956700;28;20326;-72
2023/05/16 13:49:39;;;;;;;4.00;0.60;;;17.20;95.80;;;;;;4957047;28;20400;-76
2023/05/16 13:52:06;;;;;;;1.77;0.40;;;17.10;95.00;;;;;;4957174;28;20245;-79
2023/05/16 13:54:34;;;;;;;0.40;0.23;;;17.20;95.90;;;;;;4956763;28;20311;-75
2023/05/16 13:57:02;;;;;;;2.17;0.30;;;17.10;95.70;;;;;;4957074;28;20212;-77
2023/05/16 13:59:30;;;;;;;4.17;0.60;;;17.00;95.40;;;;;;4956809;28;20204;-76
2023/05/16 14:01:57;;;;;;;1.30;0.50;;;17.00;96.10;;;;;;4957299;29;20267;-77
2023/05/16 14:04:24;;;;;;;4.87;0.90;;;17.00;95.90;;;;;;4956361;28;20251;-77
2023/05/16 14:06:51;;;;;;;1.50;0.27;;;17.10;95.60;;;;;;4956952;28;20246;-78
2023/05/16 14:09:18;;;;;;;3.90;0.40;;;17.00;95.00;;;;;;4957093;28;20316;-77
2023/05/16 14:11:45;;;;;;;2.13;0.40;;;16.80;95.20;;;;;;4956499;28;20307;-77
2023/05/16 14:14:12;;;;;;;2.50;0.40;;;16.70;95.80;;;;;;4956415;28;20695;-79
2023/05/16 14:16:43;;;;;;;0.70;0.40;;;16.60;95.00;;;;;;4956930;28;20259;-75
2023/05/16 14:19:10;;;;;;;2.20;0.77;;;16.50;95.40;;;;;;4956480;28;20211;-76
2023/05/16 14:21:38;;;;;;;2.97;0.40;;;16.60;95.80;;;;;;4959602;28;20303;-77
2023/05/16 14:24:06;;;;;;;2.53;0.30;;;16.70;96.20;;;;;;4973213;28;20234;-74
2023/05/16 14:26:33;;;;;;;2.40;0.60;;;16.90;96.00;;;;;;4955017;28;20290;-77
2023/05/16 14:29:01;;;;;;;1.13;0.43;;;17.00;95.80;;;;;;4954479;28;20207;-76
2023/05/16 14:31:27;;;;;;;0.87;0.20;;;16.80;95.90;;;;;;4954548;28;20203;-77
2023/05/16 14:33:56;;;;;;;2.43;0.50;;;16.80;95.70;;;;;;4954798;28;20303;-77
2023/05/16 14:36:23;;;;;;;3.33;0.50;;;16.90;95.60;;;;;;4954420;28;20337;-77
2023/05/16 14:38:50;;;;;;;0.83;0.30;;;16.90;96.50;;;;;;4954620;28;20215;-75
2023/05/16 14:41:17;;;;;;;3.50;0.60;;;17.10;97.10;;;;;;4961385;28;20212;-76
2023/05/16 14:43:45;;;;;;;1.63;0.30;;;17.20;95.20;;;;;;4954195;28;20235;-73
2023/05/16 14:46:12;;;;;;;1.50;0.43;;;17.20;95.80;;;;;;4954634;28;20239;-73
2023/05/16 14:48:38;;;;;;;2.50;0.40;;;17.30;95.30;;;;;;4954955;28;20298;-73
2023/05/16 14:51:07;;;;;;;0.87;0.30;;;17.30;95.10;;;;;;4954327;28;20545;-73
2023/05/16 14:53:34;;;;;;;1.60;0.37;;;17.30;95.60;;;;;;4954694;28;20228;-73
2023/05/16 14:56:02;;;;;;;2.23;0.40;;;17.20;94.60;;;;;;4954319;28;20223;-74
2023/05/16 14:58:29;;;;;;;1.97;0.40;;;17.00;94.50;;;;;;4955067;28;20214;-76
2023/05/16 15:00:56;;;;;;;2.20;0.40;;;16.80;95.60;;;;;;4955752;28;20765;-74
2023/05/16 15:03:23;;;;;;;1.47;0.27;;;16.90;96.20;;;;;;4955311;28;20215;-74
2023/05/16 15:05:51;;;;;;;2.10;0.27;;;16.90;95.30;;;;;;4955715;28;20382;-74
2023/05/16 15:08:19;;;;;;;0.73;0.30;;;16.90;95.30;;;;;;4955150;28;20216;-74
2023/05/16 15:10:46;;;;;;;5.80;1.70;;;16.80;94.80;;;;;;4955968;28;20302;-74
2023/05/16 15:13:13;;;;;;;1.17;0.40;;;16.80;94.60;;;;;;4955603;29;20212;-74
2023/05/16 15:15:41;;;;;;;3.10;0.80;;;16.60;95.30;;;;;;4955402;28;20236;-74
2023/05/16 15:18:09;;;;;;;1.50;0.50;;;16.20;95.40;;;;;;4955450;28;20290;-74
2023/05/16 15:20:36;;;;;;;2.63;0.53;;;16.20;96.10;;;;;;4955333;28;20212;-74
2023/05/16 15:23:03;;;;;;;1.97;0.60;;;16.40;97.00;;;;;;4955251;28;20207;-75
2023/05/16 15:25:32;;;;;;;1.60;0.20;;;16.40;95.90;;;;;;4955004;28;20259;-74
2023/05/16 15:27:59;;;;;;;2.30;0.40;;;16.40;95.80;;;;;;4955485;29;20702;-74
2023/05/16 15:30:25;;;;;;;0.93;0.30;;;16.40;96.10;;;;;;4955668;28;20244;-75
2023/05/16 15:32:52;;;;;;;1.53;0.30;;;16.40;95.60;;;;;;4954957;28;20243;-74
2023/05/16 15:35:19;;;;;;;1.07;0.30;;;16.40;95.00;;;;;;4954898;28;20270;-74
2023/05/16 15:37:46;;;;;;;1.27;0.20;;;16.30;95.10;;;;;;4955370;28;20251;-75
2023/05/16 15:40:14;;;;;;;1.17;0.40;;;16.30;95.20;;;;;;4955483;29;20262;-74
2023/05/16 15:42:43;;;;;;;1.93;0.40;;;16.10;95.40;;;;;;4954870;28;20215;-75
2023/05/16 15:45:11;;;;;;;1.03;0.20;;;16.00;96.30;;;;;;4954850;28;20722;-74
2023/05/16 15:47:38;;;;;;;2.67;0.40;;;16.00;96.40;;;;;;4954787;28;20239;-75
2023/05/16 15:50:06;;;;;;;2.47;0.40;;;16.00;95.70;;;;;;4954869;28;20243;-77
2023/05/16 15:52:34;;;;;;;1.03;0.50;;;16.00;95.80;;;;;;4955455;28;20216;-74
2023/05/16 15:55:01;;;;;;;0.87;0.30;;;16.00;96.00;;;;;;4954977;28;20224;-74
2023/05/16 15:57:28;;;;;;;0.60;0.30;;;15.90;95.30;;;;;;4955121;28;20239;-74
2023/05/16 15:59:56;;;;;;;2.10;0.30;;;15.90;95.60;;;;;;4955166;29;20244;-75
2023/05/16 16:02:23;;;;;;;1.63;0.30;;;16.00;96.40;;;;;;4954946;28;20239;-75
2023/05/16 16:04:51;;;;;;;1.23;0.50;;;16.10;96.40;;;;;;4954901;28;20315;-74
2023/05/16 16:07:18;;;;;;;2.43;0.40;;;16.20;96.60;;;;;;4954854;28;20235;-75
2023/05/16 16:09:45;;;;;;;1.30;0.30;;;16.30;95.40;;;;;;4955208;28;20612;-74
2023/05/16 16:12:12;;;;;;;0.93;0.30;;;16.20;95.90;;;;;;4954923;29;20294;-77
2023/05/16 16:14:39;;;;;;;0.97;0.33;;;16.00;96.00;;;;;;4954757;28;20286;-77
2023/05/16 16:17:08;;;;;;;0.43;0.30;;;15.90;96.10;;;;;;4954269;28;20295;-78
2023/05/16 16:19:35;;;;;;;0.57;0.30;;;15.80;96.30;;;;;;4953470;28;20731;-77
2023/05/16 16:22:02;;;;;;;2.07;0.30;;;15.80;96.60;;;;;;4954665;28;20243;-77
2023/05/16 16:24:29;;;;;;;2.80;0.40;;;15.80;96.90;;;;;;4958373;28;20266;-77
2023/05/16 16:26:56;;;;;;;1.70;0.27;;;15.90;96.30;;;;;;4958335;28;20236;-77
2023/05/16 16:29:23;;;;;;;0.60;0.30;;;16.00;97.00;;;;;;4958036;28;20631;-76
2023/05/16 16:31:49;;;;;;;1.93;0.37;;;16.00;96.80;;;;;;4958479;28;20211;-77
2023/05/16 16:34:18;;;;;;;3.33;0.60;;;16.10;97.50;;;;;;4958179;28;20255;-77
2023/05/16 16:36:45;;;;;;;1.60;0.50;;;16.00;97.10;;;;;;4958705;28;20212;-77
2023/05/16 16:39:12;;;;;;;0.60;0.30;;;15.80;97.70;;;;;;4958356;28;20275;-77
2023/05/16 16:41:38;;;;;;;2.50;0.43;;;15.70;97.60;;;;;;4958296;28;20295;-77
2023/05/16 16:44:05;;;;;;;1.70;0.30;;;15.60;97.90;;;;;;4958054;28;20259;-78
2023/05/16 16:46:32;;;;;;;3.80;0.40;;;15.60;97.90;;;;;;4958271;28;20242;-76
2023/05/16 16:48:59;;;;;;;1.13;0.30;;;15.70;97.30;;;;;;4958018;28;20212;-76
2023/05/16 16:51:30;;;;;;;2.47;0.37;;;15.60;97.20;;;;;;4957923;28;20235;-77
2023/05/16 16:53:57;;;;;;;1.67;0.30;;;15.40;97.40;;;;;;4957768;28;20278;-76
2023/05/16 16:56:26;;;;;;;3.50;0.87;;;15.30;97.70;;;;;;4957834;28;20212;-77
2023/05/16 16:58:53;;;;;;;5.50;0.40;;;15.30;98.00;;;;;;4957895;28;20204;-77
2023/05/16 17:01:20;;;;;;;1.90;0.50;;;15.30;98.10;;;;;;4957686;28;20299;-77
2023/05/16 17:03:48;;;;;;;1.33;0.27;;;15.30;98.10;;;;;;4957242;28;20319;-76
2023/05/16 17:06:15;;;;;;;2.67;0.40;;;15.30;98.10;;;;;;4957908;28;20299;-76
2023/05/16 17:08:44;;;;;;;2.37;0.60;;;15.40;98.00;;;;;;4968080;28;20207;-77
2023/05/16 17:11:11;;;;;;;1.63;0.20;;;15.40;98.00;;;;;;4977099;28;20300;-77
2023/05/16 17:13:40;;;;;;;1.83;0.30;;;15.40;98.30;;;;;;4965022;28;20729;-77
2023/05/16 17:16:09;;;;;;;2.97;0.50;;;15.20;97.90;;;;;;4958424;28;20283;-77
2023/05/16 17:18:36;;;;;;;2.77;0.47;;;15.20;97.80;;;;;;4958090;28;20642;-76
2023/05/16 17:21:03;;;;;;;3.53;0.50;;;15.40;97.70;;;;;;4975261;28;20235;-76
2023/05/16 17:23:31;;;;;;;2.00;0.30;;;15.30;98.20;;;;;;4969949;28;20282;-75
2023/05/16 17:26:00;;;;;;;0.77;0.40;;;15.30;98.50;;;;;;4957351;28;20239;-75
2023/05/16 17:28:26;;;;;;;0.53;0.30;;;15.30;98.40;;;;;;4957274;28;20236;-75
2023/05/16 17:30:53;;;;;;;0.40;0.20;;;15.30;97.80;;;;;;4957779;28;20271;-75
2023/05/16 17:33:20;;;;;;;2.93;0.30;;;15.40;97.60;;;;;;4956913;28;20299;-75
2023/05/16 17:35:48;;;;;;;1.20;0.40;;;15.30;97.70;;;;;;4957239;28;20274;-75
2023/05/16 17:38:16;;;;;;;1.80;0.30;;;15.20;97.80;;;;;;4957374;28;20247;-75
2023/05/16 17:40:43;;;;;;;0.30;0.30;;;15.10;97.70;;;;;;4957384;28;20571;-76
2023/05/16 17:43:12;;;;;;;2.10;0.80;;;14.90;98.20;;;;;;4957326;28;20298;-75
2023/05/16 17:45:39;;;;;;;1.27;0.20;;;14.90;98.50;;;;;;4957081;28;20211;-75
2023/05/16 17:48:06;;;;;;;1.10;0.60;;;14.90;98.00;;;;;;4956721;28;20321;-75
2023/05/16 17:50:34;;;;;;;1.57;0.40;;;14.80;98.60;;;;;;4956966;28;20236;-75
2023/05/16 17:53:01;;;;;;;0.60;0.30;;;14.60;98.70;;;;;;4956815;28;20214;-76
2023/05/16 17:55:28;;;;;;;0.47;0.20;;;14.50;98.50;;;;;;4956885;29;20659;-75
2023/05/16 17:57:55;;;;;;;0.20;0.20;;;14.60;98.60;;;;;;4956892;28;20251;-75
2023/05/16 18:00:24;;;;;;;0.57;0.20;;;14.40;98.90;;;;;;4956378;28;20243;-76
2023/05/16 18:02:52;;;;;;;1.43;0.40;;;14.40;99.10;;;;;;4956728;28;20263;-75
2023/05/16 18:05:19;;;;;;;1.07;0.20;;;14.40;99.10;;;;;;4956519;28;20740;-75
2023/05/16 18:07:46;;;;;;;0.77;0.33;;;14.40;99.80;;;;;;4956599;28;20232;-75
2023/05/16 18:10:13;;;;;;;1.07;0.40;;;14.20;99.90;;;;;;4956816;28;20212;-75
2023/05/16 18:12:40;;;;;;;1.70;0.20;;;14.30;99.90;;;;;;4956591;28;20215;-75
2023/05/16 18:15:09;;;;;;;1.30;0.50;;;14.20;99.90;;;;;;4956030;28;20235;-76
2023/05/16 18:17:37;;;;;;;0.40;0.30;;;14.30;99.90;;;;;;4956251;28;20214;-75
2023/05/16 18:20:10;;;;;;;0.77;0.30;;;14.40;99.90;;;;;;4956009;28;20236;-75
2023/05/16 18:22:37;;;;;;;1.70;0.50;;;14.20;99.90;;;;;;4958690;28;20209;-75
2023/05/16 18:25:04;;;;;;;0.90;0.30;;;14.20;99.90;;;;;;4975152;28;20730;-75
2023/05/16 18:27:31;;;;;;;0.80;0.40;;;14.10;99.90;;;;;;4975466;28;20709;-76
2023/05/16 18:29:58;;;;;;;3.60;0.50;;;14.10;99.90;;;;;;4975555;28;20294;-75
2023/05/16 18:32:25;;;;;;;0.50;0.30;;;14.00;99.90;;;;;;4975263;28;20211;-76
2023/05/16 18:34:54;;;;;;;1.57;0.40;;;13.80;99.90;;;;;;4975177;28;20781;-75
2023/05/16 18:37:21;;;;;;;1.07;0.40;;;13.80;99.90;;;;;;4975556;28;20311;-76
2023/05/16 18:39:48;;;;;;;0.50;0.30;;;13.80;99.90;;;;;;4975563;28;20211;-76
2023/05/16 18:42:16;;;;;;;2.50;0.50;;;13.90;99.90;;;;;;4975582;28;20556;-75
2023/05/16 18:44:43;;;;;;;0.90;0.30;;;13.90;99.90;;;;;;4974462;28;20277;-75
2023/05/16 18:47:10;;;;;;;3.30;0.47;;;13.90;99.90;;;;;;4975275;28;20326;-75
2023/05/16 18:49:37;;;;;;;2.63;0.30;;;13.90;99.90;;;;;;4975247;28;20207;-76
2023/05/16 18:52:07;;;;;;;2.13;0.40;;;13.90;99.90;;;;;;4975311;28;20662;-76
2023/05/16 18:54:35;;;;;;;1.97;0.47;;;13.80;99.90;;;;;;4975232;28;20231;-75
2023/05/16 18:57:02;;;;;;;0.57;0.37;;;13.90;99.90;;;;;;4974871;28;20238;-76
2023/05/16 18:59:29;;;;;;;1.97;0.40;;;13.70;99.90;;;;;;4975023;28;20622;-75
2023/05/16 19:01:56;;;;;;;1.83;0.50;;;13.70;99.90;;;;;;4974739;28;20255;-75
2023/05/16 19:04:23;;;;;;;2.20;0.40;;;13.80;99.90;;;;;;4974575;28;20259;-75
2023/05/16 19:06:53;;;;;;;0.83;0.47;;;13.80;99.90;;;;;;4974145;28;20313;-75
2023/05/16 19:09:22;;;;;;;1.23;0.50;;;13.80;99.90;;;;;;4974585;28;20215;-75
2023/05/16 19:11:49;;;;;;;2.73;0.50;;;13.90;99.90;;;;;;4974522;28;20733;-75
2023/05/16 19:14:16;;;;;;;1.57;0.63;;;13.90;99.90;;;;;;4974498;28;20678;-76
2023/05/16 19:16:43;;;;;;;1.30;0.50;;;14.00;99.90;;;;;;4974908;28;20234;-76
2023/05/16 19:19:10;;;;;;;3.03;0.50;;;14.00;99.90;;;;;;4974698;28;20250;-76
2023/05/16 19:21:37;;;;;;;2.97;0.50;;;14.00;99.90;;;;;;4974481;28;20250;-76
2023/05/16 19:24:05;;;;;;;1.63;0.50;;;14.00;99.90;;;;;;4974844;28;20231;-76
2023/05/16 19:26:33;;;;;;;0.93;0.60;;;13.90;99.90;;;;;;4974699;28;20247;-76
2023/05/16 19:29:00;;;;;;;0.80;0.50;;;13.80;99.90;;;;;;4974553;28;20277;-76
2023/05/16 19:31:27;;;;;;;5.67;0.83;;;13.70;99.90;;;;;;4974695;28;20227;-76
2023/05/16 19:33:54;;;;;;;3.17;0.60;;;13.70;99.90;;;;;;4974522;28;20262;-76
2023/05/16 19:36:21;;;;;;;1.67;0.63;;;13.80;99.90;;;;;;4974318;28;20297;-76
2023/05/16 19:38:48;;;;;;;4.00;0.70;;;13.70;99.90;;;;;;4974590;28;20250;-76
2023/05/16 19:41:15;;;;;;;1.73;0.50;;;13.60;99.90;;;;;;4974334;28;20251;-76
2023/05/16 19:43:43;;;;;;;4.00;0.70;;;13.50;99.90;;;;;;4974329;28;20231;-76
2023/05/16 19:46:10;;;;;;;1.73;0.70;;;13.40;99.90;;;;;;4974471;28;20250;-76
2023/05/16 19:48:37;;;;;;;1.57;0.80;;;13.50;99.90;;;;;;4974257;28;20270;-76
2023/05/16 19:51:04;;;;;;;1.40;0.70;;;13.50;99.90;;;;;;4974857;28;20247;-77
2023/05/16 19:53:31;;;;;;;2.20;0.63;;;13.40;99.90;;;;;;4974242;28;20227;-77
2023/05/16 19:55:58;;;;;;;1.00;0.60;;;13.40;99.90;;;;;;4974084;28;20255;-76
2023/05/16 19:58:25;;;;;;;1.93;0.57;;;13.40;99.90;;;;;;4973925;28;20250;-76
2023/05/16 20:00:53;;;;;;;1.57;0.60;;;13.40;99.90;;;;;;4974082;28;20206;-76
2023/05/16 20:03:21;;;;;;;3.47;0.90;;;13.20;99.90;;;;;;4973628;28;20246;-76
2023/05/16 20:05:48;;;;;;;5.43;1.10;;;13.40;99.90;;;;;;4974222;28;20627;-76
2023/05/16 20:08:15;;;;;;;1.50;0.90;;;13.30;99.90;;;;;;4973901;28;20266;-76
2023/05/16 20:10:41;;;;;;;1.77;1.20;;;13.20;99.90;;;;;;4974001;28;20648;-76
2023/05/16 20:13:08;;;;;;;2.53;1.13;;;13.10;99.90;;;;;;4974143;28;20266;-76
2023/05/16 20:15:35;;;;;;;3.10;1.20;;;13.00;99.90;;;;;;4974147;28;20287;-76
2023/05/16 20:18:04;;;;;;;2.87;1.10;;;12.90;99.90;;;;;;4973855;28;20258;-77
2023/05/16 20:20:30;;;;;;;1.80;1.00;;;12.80;99.90;;;;;;4974257;28;20243;-76
2023/05/16 20:22:57;;;;;;;4.53;1.20;;;12.60;99.90;;;;;;4974039;28;20234;-76
2023/05/16 20:25:24;;;;;;;3.47;1.30;;;12.40;99.90;;;;;;4973907;28;20314;-76
2023/05/16 20:27:51;;;;;;;5.87;1.50;;;12.50;99.90;;;;;;4973962;28;20318;-76
2023/05/16 20:30:18;;;;;;;2.53;1.20;;;12.30;99.90;;;;;;4974217;28;20261;-76
2023/05/16 20:32:45;;;;;;;3.00;1.40;;;12.40;99.90;;;;;;4973614;28;20245;-76
2023/05/16 20:35:13;;;;;;;3.47;1.30;;;12.40;99.90;;;;;;4973456;28;20419;-76
2023/05/16 20:37:41;;;;;;;3.90;1.17;;;12.20;99.90;;;;;;4973793;28;20211;-76
2023/05/16 20:40:09;;;;;;;2.57;1.70;;;12.10;99.90;;;;;;4974012;28;20230;-76